createdAt,value
2022-07-29T00:00:35.752Z,21.333333
2022-07-29T00:05:18.459Z,23.000000
2022-07-29T00:10:21.634Z,15.000000
2022-07-29T00:15:24.607Z,11.000000
2022-07-29T00:20:27.126Z,11.000000
2022-07-29T00:25:29.924Z,11.000000
2022-07-29T00:30:33.551Z,10.333333
2022-07-29T00:35:35.108Z,10.000000
2022-07-29T00:40:17.073Z,12.666667
2022-07-29T00:45:19.425Z,14.000000
2022-07-29T00:50:21.806Z,12.666667
2022-07-29T00:55:24.441Z,12.000000
2022-07-29T01:00:27.273Z,10.800000
2022-07-29T01:05:51.028Z,10.000000
2022-07-29T01:10:32.612Z,16.000000
2022-07-29T01:15:35.378Z,19.000000
2022-07-29T01:20:18.315Z,13.000000
2022-07-29T01:25:21.090Z,10.000000
2022-07-29T01:30:23.667Z,9.357143
2022-07-29T01:35:26.474Z,9.000000
2022-07-29T01:40:29.491Z,10.200000
2022-07-29T01:45:32.469Z,11.000000
2022-07-29T01:50:35.092Z,9.000000
2022-07-29T01:55:17.749Z,8.000000
2022-07-29T02:00:20.727Z,9.333333
2022-07-29T02:05:23.299Z,10.000000
2022-07-29T02:10:26.161Z,10.000000
2022-07-29T02:15:29.154Z,10.000000
2022-07-29T02:20:31.813Z,8.666667
2022-07-29T02:25:37.506Z,8.000000
2022-07-29T02:30:15.998Z,9.333333
2022-07-29T02:35:18.270Z,10.000000
2022-07-29T02:40:20.670Z,11.333333
2022-07-29T02:45:23.088Z,12.000000
2022-07-29T02:50:25.037Z,11.400000
2022-07-29T02:55:27.662Z,11.000000
2022-07-29T03:00:30.144Z,11.600000
2022-07-29T03:05:32.467Z,12.000000
2022-07-29T03:10:35.515Z,6.666667
2022-07-29T03:15:18.003Z,4.000000
2022-07-29T03:20:21.049Z,8.000000
2022-07-29T03:25:23.836Z,10.000000
2022-07-29T03:30:26.276Z,12.400000
2022-07-29T03:35:28.771Z,14.000000
2022-07-29T03:40:31.241Z,16.000000
2022-07-29T03:45:33.797Z,17.000000
2022-07-29T03:50:35.981Z,13.000000
2022-07-29T03:55:18.493Z,11.000000
2022-07-29T04:00:21.569Z,17.000000
2022-07-29T04:05:24.258Z,20.000000
2022-07-29T04:10:31.549Z,17.000000
2022-07-29T04:15:31.414Z,15.000000
2022-07-29T04:20:32.213Z,13.666667
2022-07-29T04:25:35.064Z,13.000000
2022-07-29T04:30:17.084Z,13.000000
2022-07-29T04:35:19.785Z,13.000000
2022-07-29T04:40:22.193Z,11.071429
2022-07-29T04:45:25.229Z,10.000000
2022-07-29T04:50:27.635Z,11.200000
2022-07-29T04:55:30.305Z,12.000000
2022-07-29T05:00:33.444Z,14.000000
2022-07-29T05:05:35.046Z,15.000000
2022-07-29T05:10:17.474Z,15.000000
2022-07-29T05:15:20.149Z,15.000000
2022-07-29T05:20:23.102Z,11.142857
2022-07-29T05:25:40.724Z,9.000000
2022-07-29T05:30:28.576Z,10.200000
2022-07-29T05:35:31.012Z,11.000000
2022-07-29T05:40:33.565Z,9.000000
2022-07-29T05:45:36.073Z,8.000000
2022-07-29T05:50:18.315Z,10.666667
2022-07-29T05:55:21.095Z,12.000000
2022-07-29T06:00:24.049Z,10.071429
2022-07-29T06:05:26.625Z,9.000000
2022-07-29T06:10:29.515Z,10.200000
2022-07-29T06:15:32.189Z,11.000000
2022-07-29T06:20:35.235Z,10.333333
2022-07-29T06:25:17.138Z,10.000000
2022-07-29T06:30:19.556Z,14.000000
2022-07-29T06:35:39.262Z,16.000000
2022-07-29T06:40:24.910Z,17.285714
2022-07-29T06:45:27.545Z,18.000000
2022-07-29T06:50:29.811Z,12.600000
2022-07-29T06:55:32.741Z,9.000000
2022-07-29T07:00:35.382Z,11.000000
2022-07-29T07:05:17.466Z,12.000000
2022-07-29T07:10:20.080Z,11.333333
2022-07-29T07:15:22.675Z,11.000000
2022-07-29T07:20:25.527Z,11.600000
2022-07-29T07:25:28.557Z,12.000000
2022-07-29T07:30:30.913Z,11.333333
2022-07-29T07:35:33.883Z,11.000000
2022-07-29T07:40:18.525Z,13.000000
2022-07-29T07:45:18.603Z,14.000000
2022-07-29T07:50:22.114Z,12.000000
2022-07-29T07:55:24.577Z,11.000000
2022-07-29T08:00:27.049Z,10.400000
2022-07-29T08:05:29.731Z,10.000000
2022-07-29T08:10:32.073Z,8.000000
2022-07-29T08:15:34.812Z,7.000000
2022-07-29T08:20:17.462Z,9.666667
2022-07-29T08:25:19.777Z,11.000000
2022-07-29T08:30:21.771Z,11.666667
2022-07-29T08:35:24.312Z,12.000000
2022-07-29T08:40:30.592Z,9.600000
2022-07-29T08:45:29.550Z,8.000000
2022-07-29T08:50:32.149Z,7.333333
2022-07-29T08:55:34.844Z,7.000000
2022-07-29T09:00:17.056Z,9.666667
2022-07-29T09:05:19.806Z,11.000000
2022-07-29T09:10:22.399Z,12.928571
2022-07-29T09:15:25.060Z,14.000000
2022-07-29T09:20:27.614Z,11.000000
2022-07-29T09:25:30.025Z,9.000000
2022-07-29T09:30:32.276Z,13.000000
2022-07-29T09:35:34.750Z,15.000000
2022-07-29T09:40:17.098Z,14.333333
2022-07-29T09:45:20.024Z,14.000000
2022-07-29T09:50:22.476Z,10.142857
2022-07-29T09:55:25.688Z,8.000000
2022-07-29T10:00:28.090Z,8.600000
2022-07-29T10:05:36.500Z,9.000000
2022-07-29T10:10:33.451Z,7.666667
2022-07-29T10:15:35.717Z,7.000000
2022-07-29T10:20:18.160Z,11.666667
2022-07-29T10:25:21.312Z,14.000000
2022-07-29T10:30:24.599Z,10.785714
2022-07-29T10:35:27.618Z,9.000000
2022-07-29T10:40:30.351Z,9.600000
2022-07-29T10:45:33.047Z,10.000000
2022-07-29T10:50:35.429Z,9.333333
2022-07-29T10:55:17.854Z,9.000000
2022-07-29T11:00:20.567Z,13.666667
2022-07-29T11:05:23.499Z,16.000000
2022-07-29T11:10:31.033Z,13.600000
2022-07-29T11:11:31.949Z,13.600000
2022-07-29T11:15:31.626Z,12.000000
2022-07-29T11:20:31.534Z,11.333333
2022-07-29T11:25:42.814Z,11.000000
2022-07-29T11:30:16.661Z,11.666667
2022-07-29T11:35:37.164Z,12.000000
2022-07-29T11:40:22.624Z,12.000000
2022-07-29T11:45:42.197Z,12.000000
2022-07-29T11:50:29.070Z,12.600000
2022-07-29T11:55:32.282Z,13.000000
2022-07-29T12:00:33.750Z,12.333333
2022-07-29T12:05:24.051Z,12.000000
2022-07-29T12:10:19.742Z,12.000000
2022-07-29T12:15:21.393Z,12.000000
2022-07-29T12:20:23.940Z,10.714286
2022-07-29T12:25:35.016Z,10.000000
2022-07-29T12:30:30.923Z,10.666667
2022-07-29T12:35:33.878Z,11.000000
2022-07-29T12:40:16.982Z,11.666667
2022-07-29T12:45:20.666Z,12.000000
2022-07-29T12:50:26.451Z,12.000000
2022-07-29T12:55:27.212Z,12.000000
2022-07-29T13:00:30.126Z,10.200000
2022-07-29T13:05:33.576Z,9.000000
2022-07-29T13:10:16.300Z,10.333333
2022-07-29T13:15:18.976Z,11.000000
2022-07-29T13:20:22.224Z,12.333333
2022-07-29T13:25:25.008Z,13.000000
2022-07-29T13:30:27.602Z,12.400000
2022-07-29T13:35:30.142Z,12.000000
2022-07-29T13:40:33.197Z,14.000000
2022-07-29T13:45:35.552Z,15.000000
2022-07-29T13:50:19.012Z,11.666667
2022-07-29T13:55:22.017Z,10.000000
2022-07-29T14:00:25.056Z,8.071429
2022-07-29T14:05:27.552Z,7.000000
2022-07-29T14:10:30.389Z,9.666667
2022-07-29T14:15:33.662Z,11.000000
2022-07-29T14:20:16.566Z,11.666667
2022-07-29T14:25:21.235Z,12.000000
2022-07-29T14:30:23.813Z,13.928571
2022-07-29T14:35:26.969Z,15.000000
2022-07-29T14:40:29.589Z,13.200000
2022-07-29T14:45:32.120Z,12.000000
2022-07-29T14:50:34.815Z,9.333333
2022-07-29T14:55:20.220Z,8.000000
2022-07-29T15:00:19.883Z,9.333333
2022-07-29T15:05:23.227Z,10.000000
2022-07-29T15:10:26.215Z,12.400000
2022-07-29T15:15:29.419Z,14.000000
2022-07-29T15:20:32.456Z,12.666667
2022-07-29T15:25:35.688Z,12.000000
2022-07-29T15:30:33.247Z,12.666667
2022-07-29T15:35:22.288Z,13.000000
2022-07-29T15:40:24.655Z,13.000000
2022-07-29T15:45:31.627Z,13.000000
2022-07-29T15:50:31.193Z,10.333333
2022-07-29T15:55:34.140Z,9.000000
2022-07-29T16:00:16.473Z,10.333333
2022-07-29T16:05:19.064Z,11.000000
2022-07-29T16:10:21.909Z,11.666667
2022-07-29T16:15:24.135Z,12.000000
2022-07-29T16:20:26.899Z,12.000000
2022-07-29T16:25:57.623Z,12.000000
2022-07-29T16:30:33.184Z,10.666667
2022-07-29T16:35:16.043Z,10.000000
2022-07-29T16:40:19.061Z,12.000000
2022-07-29T16:45:22.178Z,13.000000
2022-07-29T16:50:25.737Z,11.800000
2022-07-29T16:55:28.827Z,11.000000
2022-07-29T17:00:31.394Z,13.000000
2022-07-29T17:05:52.245Z,14.000000
2022-07-29T17:10:17.891Z,12.000000
2022-07-29T17:15:21.382Z,11.000000
2022-07-29T17:20:24.194Z,10.357143
2022-07-29T17:25:27.157Z,10.000000
2022-07-29T17:30:29.968Z,10.600000
2022-07-29T17:35:33.068Z,11.000000
2022-07-29T17:40:36.239Z,11.000000
2022-07-29T17:45:18.762Z,11.000000
2022-07-29T17:50:21.655Z,10.333333
2022-07-29T17:55:24.975Z,10.000000
2022-07-29T18:00:28.337Z,10.000000
2022-07-29T18:05:31.867Z,10.000000
2022-07-29T18:10:35.681Z,10.000000
2022-07-29T18:15:17.650Z,10.000000
2022-07-29T18:20:20.441Z,12.666667
2022-07-29T18:25:23.539Z,14.000000
2022-07-29T18:30:27.047Z,13.400000
2022-07-29T18:35:30.642Z,13.000000
2022-07-29T18:40:33.680Z,12.333333
2022-07-29T18:45:19.334Z,12.000000
2022-07-29T18:50:22.286Z,11.333333
2022-07-29T18:55:23.863Z,11.000000
2022-07-29T19:00:26.528Z,11.000000
2022-07-29T19:05:29.288Z,11.000000
2022-07-29T19:10:32.205Z,11.000000
2022-07-29T19:15:34.980Z,11.000000
2022-07-29T19:20:17.725Z,11.000000
2022-07-29T19:25:21.042Z,11.000000
2022-07-29T19:30:23.768Z,11.642857
2022-07-29T19:35:27.101Z,12.000000
2022-07-29T19:40:29.622Z,13.800000
2022-07-29T19:45:32.789Z,15.000000
2022-07-29T19:50:36.096Z,11.666667
2022-07-29T19:55:18.936Z,10.000000
2022-07-29T20:00:21.617Z,10.666667
2022-07-29T20:05:27.822Z,11.000000
2022-07-29T20:10:28.040Z,10.400000
2022-07-29T20:15:31.520Z,10.000000
2022-07-29T20:20:34.002Z,10.666667
2022-07-29T20:25:16.280Z,11.000000
2022-07-29T20:30:19.338Z,10.333333
2022-07-29T20:35:21.646Z,10.000000
2022-07-29T20:40:24.115Z,10.642857
2022-07-29T20:45:26.699Z,11.000000
2022-07-29T20:50:30.297Z,9.800000
2022-07-29T20:55:32.926Z,9.000000
2022-07-29T21:00:15.986Z,10.333333
2022-07-29T21:05:18.862Z,11.000000
2022-07-29T21:10:21.361Z,10.333333
2022-07-29T21:15:23.842Z,10.000000
2022-07-29T21:20:27.168Z,10.600000
2022-07-29T21:25:30.440Z,11.000000
2022-07-29T21:30:33.709Z,11.666667
2022-07-29T21:36:20.251Z,12.000000
2022-07-29T21:40:21.374Z,10.000000
2022-07-29T21:45:25.206Z,9.000000
2022-07-29T21:50:29.145Z,10.200000
2022-07-29T21:55:32.069Z,11.000000
2022-07-29T22:00:34.917Z,11.000000
2022-07-29T22:05:18.362Z,11.000000
2022-07-29T22:10:21.315Z,11.666667
2022-07-29T22:15:24.457Z,12.000000
2022-07-29T22:20:27.383Z,10.800000
2022-07-29T22:25:32.082Z,10.000000
2022-07-29T22:30:34.361Z,10.000000
2022-07-29T22:35:17.573Z,10.000000
2022-07-29T22:40:21.166Z,11.333333
2022-07-29T22:45:23.988Z,12.000000
2022-07-29T22:50:27.448Z,8.400000
2022-07-29T22:55:31.994Z,6.000000
2022-07-29T23:00:33.636Z,8.666667
2022-07-29T23:05:17.192Z,10.000000
2022-07-29T23:10:19.482Z,12.000000
2022-07-29T23:15:22.180Z,13.000000
2022-07-29T23:20:24.994Z,10.600000
2022-07-29T23:25:28.001Z,9.000000
2022-07-29T23:30:31.542Z,9.666667
2022-07-29T23:35:35.131Z,10.000000
2022-07-29T23:40:19.311Z,11.333333
2022-07-29T23:45:23.879Z,12.000000
2022-07-29T23:50:25.227Z,10.714286
2022-07-29T23:55:37.999Z,10.000000
